LPPRLPPS

Guest
Details From LPPR - Porto
To LPPS - Porto Santo
Flight Number -
Tags generated
Created
Modified
Stats Distance 623 nm / 1,154 km
Max Altitude 36,000 ft / 10,973 m
Waypoints 7
Social Downloads 2
Likes 0
Share VATSIM

Download

Looking for another format? Having issues loading an existing format? Contact us
Advertisement - Login to hide

Notes

Basic altitude profile: - Ascent Rate: 2500ft/min - Ascent Speed: 250kts - Cruise Altitude: 37000ft - Cruise Speed: 430kts - Descent Rate: 1500ft/min - Descent Speed: 250kts

Route

LPPR TERVA UN866 ORSOS UZ9 NARTA UN745 RULET LPPS

ID Type Via Altitude Latitude Longitude Leg Dist Tot Dist Heading (true) Name
O LPPR APT - 0 ft / 0 m 41.24793˚ -8.68122˚ - 0 nm - Porto
TERVA FIX - 22,600 ft / 6,888 m 40.41667˚ -9.59111˚ 64 nm 64 nm 220° / 219° -
ORSOS FIX UN866 (AWY-HI) 36,000 ft / 10,973 m 39.00000˚ -10.20889˚ 89 nm 154 nm 199° / 198° -
NARTA FIX UZ9 (AWY-HI) 36,000 ft / 10,973 m 36.05639˚ -12.55806˚ 209 nm 363 nm 213° / 212° -
GALPA FIX UN745 (AWY-HI) 22,700 ft / 6,919 m 34.39806˚ -14.73028˚ 145 nm 509 nm 228° / 226° -
RULET FIX UN745 (AWY-HI) 20,000 ft / 6,096 m 34.25167˚ -14.91556˚ 12 nm 522 nm 226° / 226° -
O LPPS APT - 0 ft / 0 m 33.07341˚ -16.34995˚ 100 nm 623 nm 226° / 225° Porto Santo

Altitude Profile

Advertisement - Login to hide

Weather


0- 5 10 15 20 25 30 35+ Temperature / ° C

Clouds and Precipitation
Forecast for 2018-05-22 00:00 UTC. Updated a few seconds ago

Ground ~20,000 ft ~40,000 ft Winds

LPPR

Details ICAO LPPR (OPO)
Name Porto
Region Portugal
Timezone Europe/Lisbon (UTC+1.0)
Stats Elevation 228 ft / 69 m (AMSL)
Location 41.247932° -8.681221°
Runways 1
Magnetic Variation 2.283° W

METAR

LPPR 212300Z 17004KT 100V200 9999 BKN019 15/11 Q1013

Decode

TAF

TAF LPPR 211700Z 2118/2218 26008KT 9999 SCT020 BECMG 2118/2120 VRB03KT SCT012 PROB30 TEMPO 2200/2208 5000 BR SCT004 BKN008 BECMG 2210/2212 27008KT SCT020 BECMG 2212/2215 34012KT CAVOK

Decode

Departure Runways

ID Width Length Bearing (true) Bearing (mag) Surface Threshold Offset Overrun Length
17 148 ft / 45 m 11,451 ft / 3,490 m 168.88° 171.16° Asphalt 984 ft / 300 m 220 ft / 67 m
35 148 ft / 45 m 11,451 ft / 3,490 m 348.89° 351.17° Asphalt 492 ft / 150 m 370 ft / 113 m

LPPS

Details ICAO LPPS (PXO)
Name Porto Santo
Region Portugal
Timezone Atlantic/Madeira (UTC+1.0)
Stats Elevation 340 ft / 104 m (AMSL)
Location 33.073413° -16.349946°
Runways 1
Magnetic Variation 4.765° W

METAR

LPPS 212300Z 31010KT 9999 SCT004 SCT007 BKN010 18/17 Q1016

Decode

TAF

TAF AMD LPPS 212100Z 2121/2224 29010KT 9999 SCT005 BKN015 TEMPO 2121/2202 5000 RADZ BR SCT003 BKN005 BECMG 2209/2211 FEW015 BKN030

Decode

Destination Runways

ID Width Length Bearing (true) Bearing (mag) Surface Threshold Offset Overrun Length
18 148 ft / 45 m 9,890 ft / 3,014 m 178.11° 182.88° Asphalt 0 ft / 0 m 0 ft / 0 m
36 148 ft / 45 m 9,890 ft / 3,014 m 358.12° 2.89° Asphalt 0 ft / 0 m 499 ft / 152 m

Popular Alternatives